createdAt,value
2022-11-09T00:01:21.347Z,12.29
2022-11-09T00:03:54.413Z,12.28
2022-11-09T00:06:22.631Z,12.27
2022-11-09T00:08:50.326Z,12.34
2022-11-09T00:11:19.172Z,12.28
2022-11-09T00:13:47.163Z,12.34
2022-11-09T00:16:19.869Z,12.30
2022-11-09T00:18:48.736Z,12.36
2022-11-09T00:21:23.358Z,12.42
2022-11-09T00:23:52.312Z,12.37
2022-11-09T00:26:21.586Z,12.34
2022-11-09T00:44:34.788Z,12.33
2022-11-09T00:47:02.912Z,12.02
2022-11-09T00:49:31.239Z,12.26
2022-11-09T00:51:59.015Z,12.28
2022-11-09T00:54:26.777Z,12.20
2022-11-09T00:56:54.325Z,12.16
2022-11-09T01:02:32.436Z,12.20
2022-11-09T01:05:00.110Z,12.02
2022-11-09T01:07:28.139Z,12.19
2022-11-09T01:09:56.532Z,12.22
2022-11-09T01:12:25.736Z,12.18
2022-11-09T01:14:53.324Z,12.18
2022-11-09T01:17:21.435Z,12.21
2022-11-09T01:19:51.755Z,12.28
2022-11-09T01:22:19.667Z,12.31
2022-11-09T01:24:48.569Z,12.36
2022-11-09T01:27:17.401Z,12.37
2022-11-09T01:29:44.992Z,12.38
2022-11-09T01:32:12.557Z,12.33
2022-11-09T01:34:40.735Z,12.32
2022-11-09T01:37:08.332Z,12.37
2022-11-09T01:39:35.967Z,12.39
2022-11-09T01:42:03.957Z,12.30
2022-11-09T01:44:32.032Z,12.27
2022-11-09T01:47:12.351Z,12.34
2022-11-09T01:49:58.329Z,12.37
2022-11-09T01:52:32.537Z,12.35
2022-11-09T01:55:18.190Z,12.36
2022-11-09T01:57:56.164Z,11.94
2022-11-09T02:00:23.996Z,11.44
2022-11-09T02:02:58.917Z,11.79
2022-11-09T02:05:33.409Z,11.81
2022-11-09T02:08:03.551Z,11.99
2022-11-09T02:10:55.452Z,12.08
2022-11-09T02:13:26.866Z,12.21
2022-11-09T02:15:55.070Z,12.30
2022-11-09T02:18:22.774Z,12.30
2022-11-09T02:20:54.160Z,12.40
2022-11-09T02:23:26.178Z,12.30
2022-11-09T02:26:09.131Z,12.42
2022-11-09T02:28:39.701Z,12.39
2022-11-09T02:31:12.105Z,12.49
2022-11-09T02:34:10.838Z,12.65
2022-11-09T02:36:38.608Z,12.67
2022-11-09T02:39:14.138Z,12.69
2022-11-09T02:41:52.369Z,12.77
2022-11-09T02:44:21.015Z,12.78
2022-11-09T02:46:48.698Z,12.70
2022-11-09T02:49:21.700Z,12.80
2022-11-09T02:51:49.578Z,12.81
2022-11-09T02:54:17.195Z,12.58
2022-11-09T02:56:44.830Z,12.72
2022-11-09T02:59:12.669Z,12.38
2022-11-09T03:01:41.276Z,12.50
2022-11-09T03:04:09.347Z,12.60
2022-11-09T03:06:38.152Z,12.74
2022-11-09T03:09:13.736Z,12.75
2022-11-09T03:11:42.617Z,12.77
2022-11-09T03:14:12.868Z,12.55
2022-11-09T03:16:50.518Z,12.52
2022-11-09T03:19:18.495Z,12.49
2022-11-09T03:21:48.842Z,12.50
2022-11-09T03:24:16.728Z,12.65
2022-11-09T03:26:44.805Z,12.60
2022-11-09T03:29:13.350Z,12.64
2022-11-09T03:31:41.441Z,12.40
2022-11-09T03:34:10.937Z,12.58
2022-11-09T03:36:39.698Z,12.68
2022-11-09T03:39:07.299Z,12.70
2022-11-09T03:41:35.484Z,12.72
2022-11-09T03:44:03.728Z,12.45
2022-11-09T03:46:31.456Z,12.36
2022-11-09T03:48:59.089Z,12.35
2022-11-09T03:51:26.943Z,12.24
2022-11-09T03:53:54.638Z,11.85
2022-11-09T03:56:22.573Z,11.86
2022-11-09T03:58:50.171Z,11.71
2022-11-09T04:01:17.874Z,11.77
2022-11-09T04:03:46.038Z,11.64
2022-11-09T04:06:14.006Z,11.73
2022-11-09T04:08:42.980Z,11.70
2022-11-09T04:11:13.379Z,10.97
2022-11-09T04:13:40.938Z,10.28
2022-11-09T04:16:08.608Z,10.86
2022-11-09T04:18:36.380Z,11.20
2022-11-09T04:21:04.021Z,10.81
2022-11-09T04:23:31.691Z,10.74
2022-11-09T04:25:59.715Z,10.96
2022-11-09T04:28:27.254Z,11.22
2022-11-09T04:30:54.840Z,11.24
2022-11-09T04:33:22.728Z,11.23
2022-11-09T04:35:50.373Z,11.38
2022-11-09T04:38:17.918Z,11.39
2022-11-09T04:40:48.261Z,11.30
2022-11-09T04:43:17.271Z,11.36
2022-11-09T04:45:46.788Z,11.26
2022-11-09T04:48:14.364Z,11.38
2022-11-09T04:50:42.606Z,11.46
2022-11-09T04:53:17.862Z,11.52
2022-11-09T04:55:45.694Z,11.55
2022-11-09T04:58:13.314Z,11.61
2022-11-09T05:00:40.912Z,11.70
2022-11-09T05:03:08.622Z,11.73
2022-11-09T05:05:38.344Z,11.71
2022-11-09T05:08:07.484Z,11.72
2022-11-09T05:10:37.084Z,11.79
2022-11-09T05:13:11.893Z,11.71
2022-11-09T05:15:39.891Z,11.51
2022-11-09T05:18:08.419Z,11.40
2022-11-09T05:20:37.250Z,11.53
2022-11-09T05:23:24.266Z,11.57
2022-11-09T05:25:52.282Z,11.56
2022-11-09T05:28:20.136Z,11.73
2022-11-09T05:30:47.873Z,11.68
2022-11-09T05:33:17.283Z,11.72
2022-11-09T05:35:45.194Z,11.75
2022-11-09T05:38:13.286Z,11.76
2022-11-09T05:40:47.020Z,11.62
2022-11-09T05:43:15.242Z,11.43
2022-11-09T05:45:44.342Z,11.44
2022-11-09T05:48:15.679Z,11.51
2022-11-09T05:50:44.394Z,11.65
2022-11-09T05:53:18.356Z,11.78
2022-11-09T05:55:46.583Z,11.83
2022-11-09T05:58:15.205Z,11.89
2022-11-09T06:00:43.179Z,11.66
2022-11-09T06:03:11.590Z,10.96
2022-11-09T06:05:41.386Z,11.27
2022-11-09T06:08:13.282Z,11.46
2022-11-09T06:10:42.995Z,11.62
2022-11-09T06:13:11.734Z,11.70
2022-11-09T06:15:39.970Z,11.82
2022-11-09T06:18:07.944Z,11.88
2022-11-09T06:20:36.056Z,11.86
2022-11-09T06:23:04.453Z,11.91
2022-11-09T06:26:09.185Z,11.99
2022-11-09T06:28:39.671Z,12.06
2022-11-09T06:31:12.698Z,11.93
2022-11-09T06:33:40.677Z,11.97
2022-11-09T06:36:14.200Z,11.99
2022-11-09T06:38:42.532Z,12.04
2022-11-09T06:41:11.128Z,12.03
2022-11-09T06:43:39.096Z,12.12
2022-11-09T06:46:15.106Z,12.19
2022-11-09T06:48:43.924Z,12.25
2022-11-09T06:51:12.848Z,12.22
2022-11-09T06:53:41.435Z,12.32
2022-11-09T06:56:09.853Z,12.37
2022-11-09T06:58:38.131Z,12.32
2022-11-09T07:01:11.752Z,12.30
2022-11-09T07:03:39.742Z,12.34
2022-11-09T07:06:10.496Z,12.40
2022-11-09T07:08:39.251Z,12.42
2022-11-09T07:11:13.649Z,12.43
2022-11-09T07:13:41.284Z,12.38
2022-11-09T07:16:12.166Z,12.41
2022-11-09T07:18:40.319Z,12.42
2022-11-09T07:21:13.715Z,12.49
2022-11-09T07:23:42.766Z,12.54
2022-11-09T07:26:11.215Z,12.60
2022-11-09T07:28:39.782Z,12.63
2022-11-09T07:31:08.270Z,12.69
2022-11-09T07:33:36.206Z,12.64
2022-11-09T07:36:06.473Z,12.71
2022-11-09T07:38:35.101Z,12.52
2022-11-09T07:41:03.223Z,12.40
2022-11-09T07:43:31.508Z,12.44
2022-11-09T07:46:05.094Z,12.52
2022-11-09T07:48:33.004Z,12.59
2022-11-09T07:51:02.295Z,12.59
2022-11-09T07:53:29.897Z,12.64
2022-11-09T07:56:03.572Z,12.75
2022-11-09T07:58:32.782Z,12.54
2022-11-09T08:01:00.454Z,12.62
2022-11-09T08:03:28.264Z,12.22
2022-11-09T08:05:58.037Z,12.17
2022-11-09T08:08:26.264Z,12.44
2022-11-09T08:10:56.711Z,12.66
2022-11-09T08:13:24.693Z,12.71
2022-11-09T08:15:52.991Z,12.81
2022-11-09T08:18:22.919Z,12.99
2022-11-09T08:20:51.025Z,12.79
2022-11-09T08:26:12.673Z,12.82
2022-11-09T08:28:40.228Z,12.98
2022-11-09T08:31:08.996Z,12.97
2022-11-09T08:33:40.538Z,13.18
2022-11-09T08:36:14.834Z,13.30
2022-11-09T08:38:44.857Z,12.95
2022-11-09T08:41:14.485Z,12.99
2022-11-09T08:43:42.685Z,13.27
2022-11-09T08:46:10.289Z,13.20
2022-11-09T08:48:37.877Z,13.42
2022-11-09T08:51:05.597Z,13.45
2022-11-09T08:53:33.163Z,13.45
2022-11-09T08:56:00.720Z,13.77
2022-11-09T08:58:28.373Z,13.39
2022-11-09T09:00:56.011Z,13.43
2022-11-09T09:03:23.682Z,13.51
2022-11-09T09:05:51.563Z,13.52
2022-11-09T09:08:23.116Z,13.39
2022-11-09T09:10:51.076Z,13.72
2022-11-09T09:13:19.501Z,13.81
2022-11-09T09:15:48.220Z,13.80
2022-11-09T09:18:16.008Z,13.85
2022-11-09T09:20:43.576Z,13.74
2022-11-09T09:23:12.735Z,13.98
2022-11-09T09:25:40.173Z,14.01
2022-11-09T09:28:08.376Z,13.90
2022-11-09T09:30:36.309Z,14.08
2022-11-09T09:33:04.558Z,14.08
2022-11-09T09:35:32.502Z,14.05
2022-11-09T09:38:00.314Z,14.15
2022-11-09T09:41:06.147Z,14.10
2022-11-09T09:43:44.016Z,13.90
2022-11-09T09:46:45.807Z,13.90
2022-11-09T09:49:27.238Z,13.98
2022-11-09T09:52:00.495Z,14.10
2022-11-09T09:54:39.374Z,13.99
2022-11-09T09:57:20.425Z,14.21
2022-11-09T09:59:52.741Z,14.39
2022-11-09T10:02:28.874Z,14.72
2022-11-09T10:05:01.040Z,14.99
2022-11-09T10:07:59.881Z,15.17
2022-11-09T10:10:37.518Z,15.02
2022-11-09T10:13:47.302Z,14.97
2022-11-09T10:16:24.123Z,15.00
2022-11-09T10:19:34.184Z,15.42
2022-11-09T10:22:40.114Z,15.16
2022-11-09T10:25:43.307Z,15.53
2022-11-09T10:28:17.601Z,15.80
2022-11-09T10:30:46.277Z,15.85
2022-11-09T10:33:21.804Z,16.21
2022-11-09T10:36:21.887Z,16.45
2022-11-09T10:38:54.898Z,16.68
2022-11-09T10:41:46.327Z,16.06
2022-11-09T10:44:32.452Z,15.93
2022-11-09T10:47:19.502Z,16.11
2022-11-09T10:50:24.732Z,16.13
2022-11-09T10:53:25.266Z,16.64
2022-11-09T10:56:20.813Z,16.87
2022-11-09T10:59:40.946Z,16.47
2022-11-09T11:02:27.054Z,16.50
2022-11-09T11:05:19.316Z,16.68
2022-11-09T11:08:30.965Z,17.01
2022-11-09T11:11:35.075Z,16.41
2022-11-09T11:14:36.353Z,16.81
2022-11-09T11:17:29.845Z,16.86
2022-11-09T11:20:37.423Z,17.14
2022-11-09T11:23:26.265Z,17.27
2022-11-09T11:26:35.714Z,17.30
2022-11-09T11:29:29.514Z,17.18
2022-11-09T11:32:18.419Z,17.12
2022-11-09T11:35:36.005Z,16.93
2022-11-09T11:39:01.871Z,17.05
2022-11-09T11:42:15.659Z,17.24
2022-11-09T11:45:39.052Z,17.45
2022-11-09T11:48:38.253Z,17.04
2022-11-09T11:52:13.396Z,17.46
2022-11-09T11:55:14.879Z,16.90
2022-11-09T11:58:37.780Z,16.76
2022-11-09T12:02:03.294Z,17.58
2022-11-09T12:05:15.341Z,17.87
2022-11-09T12:08:36.868Z,18.15
2022-11-09T12:12:08.042Z,18.35
2022-11-09T12:15:32.631Z,18.54
2022-11-09T12:18:25.069Z,18.78
2022-11-09T12:21:42.895Z,18.87
2022-11-09T12:24:45.316Z,18.72
2022-11-09T12:27:49.015Z,18.96
2022-11-09T12:31:03.861Z,18.23
2022-11-09T12:34:22.007Z,18.24
2022-11-09T12:37:23.848Z,18.43
2022-11-09T12:40:22.907Z,17.76
2022-11-09T12:43:55.876Z,17.84
2022-11-09T12:47:03.954Z,18.12
2022-11-09T12:49:50.968Z,18.62
2022-11-09T12:52:38.364Z,18.87
2022-11-09T12:55:43.103Z,19.08
2022-11-09T12:58:34.752Z,19.31
2022-11-09T13:01:27.372Z,19.38
2022-11-09T13:04:20.501Z,19.57
2022-11-09T13:07:09.886Z,19.66
2022-11-09T13:09:59.948Z,19.68
2022-11-09T13:12:46.427Z,19.75
2022-11-09T13:15:35.540Z,19.74
2022-11-09T13:18:35.175Z,19.73
2022-11-09T13:21:22.145Z,19.69
2022-11-09T13:24:30.825Z,19.63
2022-11-09T13:27:43.079Z,19.58
2022-11-09T13:30:29.285Z,19.46
2022-11-09T13:33:16.944Z,19.41
2022-11-09T13:36:09.362Z,19.33
2022-11-09T13:39:30.481Z,19.33
2022-11-09T13:42:34.118Z,19.30
2022-11-09T13:45:36.843Z,19.19
2022-11-09T13:48:25.744Z,19.16
2022-11-09T13:51:19.469Z,19.09
2022-11-09T13:54:32.781Z,18.98
2022-11-09T13:57:20.267Z,18.79
2022-11-09T14:00:18.761Z,18.64
2022-11-09T14:03:28.877Z,18.42
2022-11-09T14:06:15.026Z,18.49
2022-11-09T14:09:03.086Z,18.36
2022-11-09T14:12:41.838Z,18.31
2022-11-09T14:15:58.535Z,18.22
2022-11-09T14:18:58.703Z,18.22
2022-11-09T14:21:47.655Z,18.27
2022-11-09T14:24:38.068Z,18.24
2022-11-09T14:27:25.081Z,18.23
2022-11-09T14:30:44.163Z,18.22
2022-11-09T14:33:34.483Z,18.22
2022-11-09T14:36:20.995Z,18.17
2022-11-09T14:39:27.492Z,18.15
2022-11-09T14:42:21.297Z,18.08
2022-11-09T14:45:14.625Z,18.06
2022-11-09T14:48:01.445Z,17.96
2022-11-09T14:50:48.787Z,17.89
2022-11-09T14:53:39.028Z,17.79
2022-11-09T14:56:27.256Z,17.57
2022-11-09T14:59:18.230Z,17.66
2022-11-09T15:02:18.921Z,17.59
2022-11-09T15:05:07.092Z,17.47
2022-11-09T15:07:54.408Z,17.50
2022-11-09T15:10:40.962Z,17.46
2022-11-09T15:13:39.987Z,17.18
2022-11-09T15:16:31.852Z,17.12
2022-11-09T15:19:34.341Z,17.13
2022-11-09T15:22:57.087Z,17.10
2022-11-09T15:25:43.409Z,17.04
2022-11-09T15:28:30.994Z,16.99
2022-11-09T15:31:19.457Z,16.91
2022-11-09T15:34:24.890Z,16.86
2022-11-09T15:37:29.917Z,16.77
2022-11-09T15:40:26.311Z,16.72
2022-11-09T15:43:38.703Z,16.73
2022-11-09T15:46:52.991Z,16.70
2022-11-09T15:49:39.137Z,16.56
2022-11-09T15:52:25.357Z,16.60
2022-11-09T15:55:24.221Z,16.62
2022-11-09T15:58:15.282Z,16.55
2022-11-09T16:01:01.637Z,16.17
2022-11-09T16:03:47.898Z,15.85
2022-11-09T16:06:34.226Z,16.02
2022-11-09T16:09:20.626Z,16.00
2022-11-09T16:12:08.126Z,16.15
2022-11-09T16:14:54.516Z,16.08
2022-11-09T16:17:40.530Z,15.99
2022-11-09T16:20:27.156Z,15.98
2022-11-09T16:23:13.289Z,16.10
2022-11-09T16:25:59.717Z,16.19
2022-11-09T16:28:46.169Z,16.25
2022-11-09T16:31:50.908Z,16.19
2022-11-09T16:34:38.006Z,16.09
2022-11-09T16:37:24.278Z,16.11
2022-11-09T16:40:13.509Z,16.20
2022-11-09T16:43:00.658Z,16.16
2022-11-09T16:45:49.697Z,16.22
2022-11-09T16:48:36.307Z,15.84
2022-11-09T16:51:25.560Z,15.80
2022-11-09T16:54:12.688Z,15.74
2022-11-09T16:57:00.047Z,15.84
2022-11-09T16:59:46.642Z,15.75
2022-11-09T17:02:33.221Z,15.81
2022-11-09T17:05:19.825Z,15.74
2022-11-09T17:08:07.398Z,15.58
2022-11-09T17:10:54.274Z,15.41
2022-11-09T17:13:40.959Z,15.44
2022-11-09T17:16:28.249Z,15.40
2022-11-09T17:19:15.797Z,15.14
2022-11-09T17:22:04.484Z,15.14
2022-11-09T17:24:50.606Z,14.99
2022-11-09T17:27:38.793Z,14.99
2022-11-09T17:30:25.425Z,15.13
2022-11-09T17:33:11.511Z,15.01
2022-11-09T17:36:03.557Z,14.84
2022-11-09T17:38:49.899Z,14.59
2022-11-09T17:41:42.257Z,14.79
2022-11-09T17:44:29.358Z,14.67
2022-11-09T17:47:15.559Z,14.85
2022-11-09T17:50:02.645Z,14.84
2022-11-09T17:52:50.260Z,14.83
2022-11-09T17:55:38.502Z,14.61
2022-11-09T17:58:26.254Z,14.58
2022-11-09T18:01:17.438Z,14.48
2022-11-09T18:04:08.654Z,14.62
2022-11-09T18:06:55.025Z,14.60
2022-11-09T18:09:42.912Z,14.76
2022-11-09T18:12:29.243Z,14.85
2022-11-09T18:15:15.963Z,14.94
2022-11-09T18:18:07.495Z,14.98
2022-11-09T18:20:53.638Z,15.05
2022-11-09T18:23:40.093Z,15.03
2022-11-09T18:26:26.952Z,14.81
2022-11-09T18:29:13.640Z,14.85
2022-11-09T18:31:59.751Z,14.99
2022-11-09T18:34:45.946Z,15.00
2022-11-09T18:37:35.826Z,14.89
2022-11-09T18:40:22.171Z,14.95
2022-11-09T18:43:13.437Z,15.04
2022-11-09T18:46:04.415Z,15.09
2022-11-09T18:48:52.667Z,15.05
2022-11-09T18:51:39.196Z,14.98
2022-11-09T18:54:26.241Z,15.01
2022-11-09T18:57:20.175Z,14.84
2022-11-09T19:00:08.089Z,14.56
2022-11-09T19:02:54.721Z,14.73
2022-11-09T19:05:47.550Z,14.77
2022-11-09T19:08:53.408Z,14.63
2022-11-09T19:11:41.446Z,14.68
2022-11-09T19:14:31.308Z,14.75
2022-11-09T19:17:17.721Z,14.85
2022-11-09T19:20:04.434Z,14.90
2022-11-09T19:22:50.458Z,14.96
2022-11-09T19:25:40.124Z,14.99
2022-11-09T19:28:26.281Z,15.03
2022-11-09T19:31:15.510Z,15.08
2022-11-09T19:34:02.496Z,15.04
2022-11-09T19:36:49.117Z,14.99
2022-11-09T19:39:38.042Z,14.96
2022-11-09T19:42:27.293Z,14.97
2022-11-09T19:45:14.759Z,14.92
2022-11-09T19:48:01.881Z,14.96
2022-11-09T19:50:53.089Z,14.97
2022-11-09T19:53:42.521Z,14.88
2022-11-09T19:56:32.165Z,14.78
2022-11-09T19:59:20.717Z,14.77
2022-11-09T20:02:08.237Z,14.76
2022-11-09T20:04:54.517Z,14.76
2022-11-09T20:08:06.022Z,14.71
2022-11-09T20:10:54.087Z,14.62
2022-11-09T20:13:40.989Z,14.59
2022-11-09T20:16:28.048Z,14.58
2022-11-09T20:19:15.190Z,14.58
2022-11-09T20:22:01.500Z,14.62
2022-11-09T20:24:47.713Z,14.61
2022-11-09T20:27:34.514Z,14.61
2022-11-09T20:30:21.226Z,14.55
2022-11-09T20:33:32.324Z,14.47
2022-11-09T20:36:19.456Z,14.35
2022-11-09T20:39:05.879Z,14.30
2022-11-09T20:41:52.332Z,14.38
2022-11-09T20:44:38.453Z,14.45
2022-11-09T20:47:49.055Z,14.49
2022-11-09T20:50:31.253Z,14.54
2022-11-09T20:53:17.490Z,14.51
2022-11-09T20:56:04.912Z,14.54
2022-11-09T20:58:51.426Z,14.54
2022-11-09T21:01:38.168Z,14.55
2022-11-09T21:04:24.272Z,14.56
2022-11-09T21:07:10.691Z,14.50
2022-11-09T21:09:56.747Z,14.54
2022-11-09T21:12:43.406Z,14.45
2022-11-09T21:18:42.084Z,14.53
2022-11-09T21:21:33.465Z,14.41
2022-11-09T21:24:41.203Z,14.43
2022-11-09T21:27:48.176Z,14.42
2022-11-09T21:30:35.402Z,14.48
2022-11-09T21:33:21.473Z,14.52
2022-11-09T21:36:15.064Z,14.54
2022-11-09T21:39:02.700Z,14.57
2022-11-09T21:41:49.707Z,14.60
2022-11-09T21:44:36.139Z,14.65
2022-11-09T21:47:24.351Z,14.60
2022-11-09T21:50:12.833Z,14.56
2022-11-09T21:52:59.600Z,14.57
2022-11-09T21:55:45.826Z,14.43
2022-11-09T21:58:32.289Z,14.51
2022-11-09T22:01:19.054Z,14.44
2022-11-09T22:04:05.454Z,14.51
2022-11-09T22:06:51.768Z,14.52
2022-11-09T22:10:06.162Z,14.57
2022-11-09T22:13:03.279Z,14.55
2022-11-09T22:16:09.392Z,14.49
2022-11-09T22:19:14.620Z,14.48
2022-11-09T22:22:00.902Z,14.34
2022-11-09T22:24:47.302Z,14.32
2022-11-09T22:27:33.904Z,14.41
2022-11-09T22:30:20.603Z,14.43
2022-11-09T22:33:06.934Z,14.51
2022-11-09T22:35:57.953Z,14.47
2022-11-09T22:38:45.301Z,14.38
2022-11-09T22:41:32.445Z,14.44
2022-11-09T22:44:19.108Z,14.44
2022-11-09T22:47:05.123Z,14.47
2022-11-09T22:49:51.394Z,14.45
2022-11-09T22:52:37.537Z,14.47
2022-11-09T22:55:25.362Z,14.45
2022-11-09T22:58:12.196Z,14.40
2022-11-09T23:01:15.735Z,14.29
2022-11-09T23:04:02.386Z,14.08
2022-11-09T23:06:49.456Z,13.85
2022-11-09T23:09:36.406Z,14.11
2022-11-09T23:12:22.874Z,14.08
2022-11-09T23:15:13.183Z,14.00
2022-11-09T23:18:45.419Z,13.44
2022-11-09T23:21:37.225Z,13.78
2022-11-09T23:24:41.895Z,13.92
2022-11-09T23:27:28.805Z,14.00
2022-11-09T23:30:15.670Z,14.12
2022-11-09T23:33:02.770Z,14.18
2022-11-09T23:35:49.171Z,14.34
2022-11-09T23:38:38.043Z,14.31
2022-11-09T23:41:24.686Z,14.37
2022-11-09T23:44:11.357Z,14.39
2022-11-09T23:46:57.590Z,14.30
2022-11-09T23:49:44.594Z,14.21
2022-11-09T23:52:31.134Z,14.12
2022-11-09T23:55:17.962Z,14.10
2022-11-09T23:58:06.827Z,14.08
